Terminal Aerodrome Forecast
Issued by NWS

Home | Current Version | Previous Version | Graphics & Text | Print | Product List | Glossary On
Versions: 1 2 3 4 5 6 7 8 9 10 11 12 13 14 15
985
FTUS43 KBIS 031732
TAFJMS
TAF
KJMS 031732Z 0318/0418 27010KT P6SM OVC090
     FM032000 28010KT P6SM VCSH BKN050
     FM040000 29009KT P6SM OVC035
     FM040600 28005KT P6SM VCSH OVC025
     FM040900 31007KT P6SM VCSH OVC015=

USA.gov is the U.S. government's official web portal to all federal, state and local government web resources and services.